createdAt,value
2019-01-15T00:00:16.729Z,101936.48
2019-01-15T00:02:45.987Z,101946.19
2019-01-15T00:05:15.195Z,101947.52
2019-01-15T00:07:44.366Z,101958.04
2019-01-15T00:10:13.739Z,101958.00
2019-01-15T00:12:42.877Z,101959.65
2019-01-15T00:15:12.181Z,101957.45
2019-01-15T00:17:41.377Z,101960.09
2019-01-15T00:20:14.846Z,101957.44
2019-01-15T00:22:44.084Z,101953.95
2019-01-15T00:25:13.408Z,101955.28
2019-01-15T00:27:42.599Z,101959.64
2019-01-15T00:30:18.696Z,101957.44
2019-01-15T00:32:47.863Z,101955.28
2019-01-15T00:35:17.038Z,101954.05
2019-01-15T00:37:46.243Z,101958.12
2019-01-15T00:40:17.647Z,101960.00
2019-01-15T00:42:47.799Z,101956.90
2019-01-15T00:45:17.522Z,101958.70
2019-01-15T00:47:46.683Z,101947.28
2019-01-15T00:50:16.980Z,101940.65
2019-01-15T00:52:46.174Z,101943.71
2019-01-15T00:55:15.344Z,101945.44
2019-01-15T00:57:44.591Z,101944.53
2019-01-15T01:00:19.369Z,101935.66
2019-01-15T01:02:48.884Z,101933.93
2019-01-15T01:05:18.787Z,101929.97
2019-01-15T01:07:48.147Z,101934.39
2019-01-15T01:10:17.855Z,101934.33
2019-01-15T01:12:47.101Z,101927.27
2019-01-15T01:15:17.415Z,101924.64
2019-01-15T01:17:46.828Z,101923.28
2019-01-15T01:20:18.625Z,101916.10
2019-01-15T01:22:47.814Z,101909.46
2019-01-15T01:25:16.984Z,101905.09
2019-01-15T01:27:46.149Z,101901.66
2019-01-15T01:30:20.790Z,101907.48
2019-01-15T01:32:49.960Z,101911.55
2019-01-15T01:35:19.199Z,101920.84
2019-01-15T01:37:48.384Z,101925.21
2019-01-15T01:40:18.583Z,101922.47
2019-01-15T01:42:48.882Z,101922.91
2019-01-15T01:45:18.146Z,101921.53
2019-01-15T01:47:47.304Z,101917.53
2019-01-15T01:50:16.655Z,101915.81
2019-01-15T01:52:45.990Z,101914.48
2019-01-15T01:55:15.347Z,101909.66
2019-01-15T01:57:44.603Z,101902.62
2019-01-15T02:00:16.238Z,101904.83
2019-01-15T02:02:45.472Z,101905.67
2019-01-15T02:05:14.646Z,101908.72
2019-01-15T02:07:44.002Z,101899.85
2019-01-15T02:10:15.634Z,101910.89
2019-01-15T02:12:44.981Z,101912.66
2019-01-15T02:15:17.007Z,101910.91
2019-01-15T02:17:46.193Z,101904.26
2019-01-15T02:20:17.381Z,101906.49
2019-01-15T02:22:46.859Z,101889.73
2019-01-15T02:25:16.107Z,101893.63
2019-01-15T02:27:46.979Z,101893.24
2019-01-15T02:30:21.290Z,101887.43
2019-01-15T02:32:50.537Z,101879.41
2019-01-15T02:35:19.713Z,101873.25
2019-01-15T02:37:48.883Z,101878.25
2019-01-15T02:40:18.247Z,101887.97
2019-01-15T02:42:47.467Z,101884.41
2019-01-15T02:45:20.581Z,101878.23
2019-01-15T02:47:49.820Z,101878.26
2019-01-15T02:50:20.450Z,101880.09
2019-01-15T02:52:49.751Z,101877.44
2019-01-15T02:55:18.997Z,101866.41
2019-01-15T02:57:48.175Z,101870.37
2019-01-15T03:00:35.291Z,101870.78
2019-01-15T03:03:04.647Z,101868.57
2019-01-15T03:05:33.896Z,101864.97
2019-01-15T03:08:03.135Z,101861.38
2019-01-15T03:10:32.353Z,101858.73
2019-01-15T03:13:01.603Z,101854.19
2019-01-15T03:15:30.785Z,101851.97
2019-01-15T03:18:00.049Z,101844.01
2019-01-15T03:20:29.219Z,101846.63
2019-01-15T03:22:58.408Z,101856.70
2019-01-15T03:25:27.650Z,101850.94
2019-01-15T03:27:56.835Z,101852.20
2019-01-15T03:30:26.985Z,101847.75
2019-01-15T03:32:56.186Z,101840.61
2019-01-15T03:35:25.435Z,101835.71
2019-01-15T03:37:54.547Z,101836.19
2019-01-15T03:40:25.548Z,101833.42
2019-01-15T03:43:03.022Z,101830.73
2019-01-15T03:45:26.252Z,101831.58
2019-01-15T03:47:55.451Z,101829.30
2019-01-15T03:50:24.766Z,101829.73
2019-01-15T03:52:54.221Z,101829.66
2019-01-15T03:55:23.428Z,101822.54
2019-01-15T03:57:52.603Z,101818.53
2019-01-15T04:00:23.134Z,101814.55
2019-01-15T04:02:52.664Z,101807.92
2019-01-15T04:05:21.848Z,101809.69
2019-01-15T04:07:54.248Z,101807.49
2019-01-15T04:10:23.517Z,101803.54
2019-01-15T04:12:52.790Z,101794.75
2019-01-15T04:15:21.961Z,101789.91
2019-01-15T04:17:51.157Z,101790.84
2019-01-15T04:20:20.403Z,101795.23
2019-01-15T04:22:49.583Z,101793.89
2019-01-15T04:25:18.810Z,101792.56
2019-01-15T04:28:05.651Z,101793.92
2019-01-15T04:30:53.192Z,101794.37
2019-01-15T04:33:22.393Z,101795.25
2019-01-15T04:35:51.569Z,101789.58
2019-01-15T04:38:23.791Z,101785.56
2019-01-15T04:40:53.036Z,101784.25
2019-01-15T04:43:22.202Z,101790.55
2019-01-15T04:45:51.414Z,101796.33
2019-01-15T04:48:20.661Z,101793.19
2019-01-15T04:50:49.924Z,101789.29
2019-01-15T04:53:19.145Z,101787.88
2019-01-15T04:55:48.323Z,101785.31
2019-01-15T04:58:17.534Z,101779.98
2019-01-15T05:00:47.689Z,101782.54
2019-01-15T05:03:16.902Z,101788.10
2019-01-15T05:05:46.207Z,101780.47
2019-01-15T05:08:15.413Z,101783.57
2019-01-15T05:10:44.612Z,101779.11
2019-01-15T05:13:13.799Z,101781.25
2019-01-15T05:15:42.983Z,101788.82
2019-01-15T05:18:12.184Z,101786.57
2019-01-15T05:20:41.365Z,101788.75
2019-01-15T05:23:12.193Z,101792.63
2019-01-15T05:25:41.406Z,101790.55
2019-01-15T05:28:11.549Z,101788.30
2019-01-15T05:30:40.737Z,101776.33
2019-01-15T05:33:10.027Z,101775.16
2019-01-15T05:35:39.222Z,101771.47
2019-01-15T05:38:08.425Z,101771.97
2019-01-15T05:40:37.641Z,101766.54
2019-01-15T05:43:06.819Z,101764.27
2019-01-15T05:45:36.700Z,101766.97
2019-01-15T05:48:07.665Z,101767.00
2019-01-15T05:50:38.476Z,101760.39
2019-01-15T05:53:07.657Z,101762.57
2019-01-15T05:55:36.860Z,101753.59
2019-01-15T05:58:06.223Z,101757.62
2019-01-15T06:00:35.492Z,101755.91
2019-01-15T06:03:04.980Z,101752.77
2019-01-15T06:05:34.138Z,101749.09
2019-01-15T06:08:03.316Z,101747.26
2019-01-15T06:10:32.569Z,101749.36
2019-01-15T06:13:01.741Z,101751.83
2019-01-15T06:15:30.912Z,101744.17
2019-01-15T06:18:00.117Z,101738.30
2019-01-15T06:20:29.304Z,101737.79
2019-01-15T06:22:58.483Z,101732.34
2019-01-15T06:25:27.683Z,101730.86
2019-01-15T06:27:56.859Z,101726.89
2019-01-15T06:30:26.023Z,101720.58
2019-01-15T06:32:55.201Z,101720.04
2019-01-15T06:35:24.371Z,101718.69
2019-01-15T06:37:53.620Z,101712.41
2019-01-15T06:40:22.801Z,101712.36
2019-01-15T06:42:51.975Z,101706.17
2019-01-15T06:45:26.113Z,101707.91
2019-01-15T06:47:55.315Z,101708.37
2019-01-15T06:50:24.563Z,101709.33
2019-01-15T06:52:53.731Z,101702.70
2019-01-15T06:55:24.375Z,101700.55
2019-01-15T06:57:53.619Z,101697.84
2019-01-15T07:00:28.219Z,101701.80
2019-01-15T07:02:57.963Z,101699.46
2019-01-15T07:05:28.171Z,101704.67
2019-01-15T07:07:57.333Z,101705.11
2019-01-15T07:10:35.685Z,101700.80
2019-01-15T07:13:05.163Z,101701.61
2019-01-15T07:15:34.337Z,101702.80
2019-01-15T07:18:03.599Z,101712.61
2019-01-15T07:20:32.779Z,101702.33
2019-01-15T07:23:01.960Z,101708.53
2019-01-15T07:25:31.205Z,101704.10
2019-01-15T07:28:00.459Z,101706.33
2019-01-15T07:30:38.937Z,101712.13
2019-01-15T07:33:08.526Z,101701.39
2019-01-15T07:35:37.772Z,101705.30
2019-01-15T07:38:07.017Z,101712.33
2019-01-15T07:40:36.234Z,101703.95
2019-01-15T07:43:05.504Z,101708.86
2019-01-15T07:45:34.773Z,101706.25
2019-01-15T07:48:04.177Z,101709.67
2019-01-15T07:50:33.357Z,101711.06
2019-01-15T07:53:04.338Z,101711.89
2019-01-15T07:55:33.525Z,101711.44
2019-01-15T07:58:02.701Z,101715.37
2019-01-15T08:00:31.903Z,101715.80
2019-01-15T08:03:01.091Z,101711.75
2019-01-15T08:05:30.341Z,101713.52
2019-01-15T08:07:59.566Z,101702.40
2019-01-15T08:10:28.750Z,101708.13
2019-01-15T08:12:57.993Z,101710.33
2019-01-15T08:15:28.807Z,101711.14
2019-01-15T08:17:58.011Z,101712.48
2019-01-15T08:20:27.171Z,101706.12
2019-01-15T08:22:56.369Z,101711.98
2019-01-15T08:25:25.535Z,101708.83
2019-01-15T08:27:54.721Z,101716.41
2019-01-15T08:30:32.617Z,101710.56
2019-01-15T08:33:01.815Z,101713.26
2019-01-15T08:35:31.057Z,101713.26
2019-01-15T08:38:00.264Z,101714.06
2019-01-15T08:40:29.426Z,101714.44
2019-01-15T08:42:58.623Z,101715.30
2019-01-15T08:45:27.849Z,101720.64
2019-01-15T08:48:07.444Z,101723.77
2019-01-15T08:50:36.959Z,101715.77
2019-01-15T08:53:06.143Z,101718.88
2019-01-15T08:55:35.319Z,101715.74
2019-01-15T08:58:04.690Z,101717.48
2019-01-15T09:00:33.864Z,101708.12
2019-01-15T09:03:03.067Z,101709.45
2019-01-15T09:05:32.257Z,101703.07
2019-01-15T09:08:01.440Z,101710.17
2019-01-15T09:10:30.646Z,101715.78
2019-01-15T09:12:59.923Z,101709.14
2019-01-15T09:15:29.117Z,101709.21
2019-01-15T09:17:58.383Z,101708.28
2019-01-15T09:20:27.512Z,101713.86
2019-01-15T09:22:56.696Z,101707.04
2019-01-15T09:25:25.865Z,101707.87
2019-01-15T09:27:55.087Z,101707.84
2019-01-15T09:30:24.263Z,101705.23
2019-01-15T09:32:53.439Z,101698.94
2019-01-15T09:35:22.640Z,101698.78
2019-01-15T09:37:52.109Z,101691.61
2019-01-15T09:40:23.497Z,101683.45
2019-01-15T09:42:52.817Z,101680.55
2019-01-15T09:45:23.144Z,101685.05
2019-01-15T09:47:59.915Z,101675.17
2019-01-15T09:50:29.214Z,101676.88
2019-01-15T09:52:58.909Z,101681.17
2019-01-15T09:55:28.167Z,101675.40
2019-01-15T09:57:57.340Z,101682.19
2019-01-15T10:00:26.519Z,101679.09
2019-01-15T10:02:55.785Z,101678.63
2019-01-15T10:05:24.997Z,101679.04
2019-01-15T10:07:54.193Z,101678.17
2019-01-15T10:10:23.376Z,101670.25
2019-01-15T10:12:52.631Z,101673.83
2019-01-15T10:15:22.250Z,101664.95
2019-01-15T10:17:51.506Z,101674.15
2019-01-15T10:20:20.790Z,101667.80
2019-01-15T10:22:50.093Z,101675.52
2019-01-15T10:25:23.588Z,101672.27
2019-01-15T10:27:53.207Z,101673.50
2019-01-15T10:30:41.907Z,101669.45
2019-01-15T10:33:23.046Z,101670.44
2019-01-15T10:35:57.728Z,101675.48
2019-01-15T10:38:28.869Z,101671.02
2019-01-15T10:40:58.494Z,101667.27
2019-01-15T10:43:28.115Z,101666.80
2019-01-15T10:45:57.325Z,101670.73
2019-01-15T10:48:26.597Z,101664.56
2019-01-15T10:50:55.763Z,101662.64
2019-01-15T10:53:24.947Z,101658.17
2019-01-15T10:55:54.218Z,101654.52
2019-01-15T10:58:23.540Z,101651.98
2019-01-15T11:00:52.787Z,101649.68
2019-01-15T11:03:21.979Z,101649.68
2019-01-15T11:05:51.284Z,101656.87
2019-01-15T11:08:20.598Z,101652.12
2019-01-15T11:10:49.743Z,101653.18
2019-01-15T11:13:18.929Z,101647.13
2019-01-15T11:15:48.137Z,101647.13
2019-01-15T11:18:17.315Z,101649.98
2019-01-15T11:20:46.567Z,101640.39
2019-01-15T11:23:15.779Z,101632.30
2019-01-15T11:25:44.975Z,101641.22
2019-01-15T11:28:14.123Z,101633.17
2019-01-15T11:30:43.321Z,101636.27
2019-01-15T11:33:12.514Z,101637.28
2019-01-15T11:35:41.699Z,101635.59
2019-01-15T11:38:10.959Z,101649.95
2019-01-15T11:40:40.151Z,101631.59
2019-01-15T11:43:09.349Z,101631.59
2019-01-15T11:45:38.552Z,101639.20
2019-01-15T11:48:07.805Z,101624.48
2019-01-15T11:50:36.981Z,101621.74
2019-01-15T11:53:06.166Z,101624.48
2019-01-15T11:55:35.344Z,101622.68
2019-01-15T11:58:04.663Z,101629.67
2019-01-15T12:00:38.077Z,101617.81
2019-01-15T12:03:11.911Z,101615.86
2019-01-15T12:05:42.727Z,101610.41
2019-01-15T12:08:13.564Z,101611.78
2019-01-15T12:10:47.089Z,101612.02
2019-01-15T12:13:17.927Z,101617.17
2019-01-15T12:15:51.608Z,101606.13
2019-01-15T12:18:22.472Z,101606.13
2019-01-15T12:20:53.273Z,101593.41
2019-01-15T12:23:26.674Z,101593.41
2019-01-15T12:26:13.821Z,101596.63
2019-01-15T12:28:44.646Z,101589.44
2019-01-15T12:31:21.526Z,101595.13
2019-01-15T12:33:58.353Z,101593.41
2019-01-15T12:36:29.196Z,101596.51
2019-01-15T12:39:16.375Z,101590.19
2019-01-15T12:41:50.123Z,101583.05
2019-01-15T12:44:39.293Z,101576.72
2019-01-15T12:47:15.815Z,101580.61
2019-01-15T12:49:49.452Z,101574.29
2019-01-15T12:52:21.244Z,101566.59
2019-01-15T12:54:53.065Z,101564.20
2019-01-15T12:57:39.952Z,101570.91
2019-01-15T13:00:16.649Z,101561.64
2019-01-15T13:02:56.601Z,101559.09
2019-01-15T13:05:33.041Z,101553.28
2019-01-15T13:08:09.568Z,101554.38
2019-01-15T13:10:52.459Z,101547.11
2019-01-15T13:13:23.299Z,101548.37
2019-01-15T13:15:56.774Z,101553.98
2019-01-15T13:18:30.484Z,101553.98
2019-01-15T13:21:03.897Z,101551.58
2019-01-15T13:23:50.807Z,101552.13
2019-01-15T13:26:21.627Z,101535.08
2019-01-15T13:28:58.285Z,101547.80
2019-01-15T13:31:29.109Z,101540.56
2019-01-15T13:34:05.538Z,101540.56
2019-01-15T13:36:36.361Z,101539.54
2019-01-15T13:39:18.066Z,101528.77
2019-01-15T13:41:48.879Z,101539.49
2019-01-15T13:44:22.130Z,101537.51
2019-01-15T13:47:01.686Z,101537.51
2019-01-15T13:49:48.595Z,101535.14
2019-01-15T13:52:28.385Z,101539.45
2019-01-15T13:54:59.193Z,101539.15
2019-01-15T13:57:30.014Z,101539.15
2019-01-15T14:00:09.631Z,101535.19
2019-01-15T14:02:55.681Z,101533.07
2019-01-15T14:05:42.966Z,101528.55
2019-01-15T14:08:30.013Z,101528.55
2019-01-15T14:11:17.582Z,101532.25
2019-01-15T14:14:04.625Z,101532.25
2019-01-15T14:16:47.447Z,101529.02
2019-01-15T14:19:27.105Z,101515.45
2019-01-15T14:22:14.024Z,101516.01
2019-01-15T14:25:00.855Z,101521.14
2019-01-15T14:27:46.868Z,101522.47
2019-01-15T14:30:31.363Z,101517.25
2019-01-15T14:33:02.193Z,101511.48
2019-01-15T14:35:33.008Z,101520.95
2019-01-15T14:38:06.627Z,101520.95
2019-01-15T14:40:55.399Z,101507.28
2019-01-15T14:43:26.221Z,101511.55
2019-01-15T14:46:06.120Z,101512.84
2019-01-15T14:48:42.719Z,101512.81
2019-01-15T14:51:13.610Z,101512.81
2019-01-15T14:53:44.478Z,101515.61
2019-01-15T14:56:24.169Z,101510.05
2019-01-15T14:59:06.790Z,101512.00
2019-01-15T15:01:43.279Z,101512.00
2019-01-15T15:04:32.277Z,101502.39
2019-01-15T15:07:06.160Z,101515.48
2019-01-15T15:09:48.850Z,101515.48
2019-01-15T15:12:37.671Z,101505.71
2019-01-15T15:15:14.617Z,101497.86
2019-01-15T15:18:00.613Z,101504.79
2019-01-15T15:20:31.423Z,101501.69
2019-01-15T15:23:07.994Z,101501.78
2019-01-15T15:25:47.577Z,101503.41
2019-01-15T15:28:27.131Z,101506.12
2019-01-15T15:30:58.012Z,101506.50
2019-01-15T15:33:28.820Z,101506.50
2019-01-15T15:36:05.375Z,101511.84
2019-01-15T15:38:52.344Z,101507.06
2019-01-15T15:41:28.841Z,101507.61
2019-01-15T15:44:02.341Z,101513.81
2019-01-15T15:46:36.276Z,101512.95
2019-01-15T15:49:25.190Z,101503.14
2019-01-15T15:52:10.820Z,101500.59
2019-01-15T15:54:57.704Z,101504.52
2019-01-15T15:57:28.605Z,101504.52
2019-01-15T15:59:59.514Z,101504.13
2019-01-15T16:02:30.347Z,101510.88
2019-01-15T16:05:10.348Z,101505.54
2019-01-15T16:07:47.170Z,101515.35
2019-01-15T16:10:23.962Z,101509.62
2019-01-15T16:12:57.456Z,101509.62
2019-01-15T16:15:28.287Z,101509.62
2019-01-15T16:18:05.647Z,101509.62
2019-01-15T16:20:55.107Z,101497.61
2019-01-15T16:23:28.685Z,101496.91
2019-01-15T16:26:05.173Z,101499.89
2019-01-15T16:28:51.919Z,101491.88
2019-01-15T16:31:22.827Z,101491.88
2019-01-15T16:33:53.651Z,101486.19
2019-01-15T16:36:41.789Z,101486.19
2019-01-15T16:39:12.686Z,101490.67
2019-01-15T16:41:59.659Z,101488.90
2019-01-15T16:44:39.092Z,101485.76
2019-01-15T16:47:12.788Z,101487.87
2019-01-15T16:49:46.224Z,101487.87
2019-01-15T16:52:33.274Z,101495.97
2019-01-15T16:55:20.004Z,101487.61
2019-01-15T16:58:06.764Z,101480.38
2019-01-15T17:00:37.688Z,101484.38
2019-01-15T17:03:11.091Z,101478.22
2019-01-15T17:05:44.616Z,101478.22
2019-01-15T17:08:22.246Z,101479.09
2019-01-15T17:10:58.713Z,101480.38
2019-01-15T17:13:29.615Z,101484.38
2019-01-15T17:16:02.990Z,101478.61
2019-01-15T17:18:37.647Z,101485.20
2019-01-15T17:21:11.469Z,101475.52
2019-01-15T17:23:48.461Z,101475.52
2019-01-15T17:26:36.078Z,101477.70
2019-01-15T17:29:23.137Z,101477.16
2019-01-15T17:32:02.566Z,101477.70
2019-01-15T17:34:42.106Z,101477.24
2019-01-15T17:37:27.879Z,101473.66
2019-01-15T17:39:58.754Z,101479.91
2019-01-15T17:42:32.548Z,101484.42
2019-01-15T17:45:20.526Z,101476.77
2019-01-15T17:47:51.337Z,101474.22
2019-01-15T17:50:38.445Z,101473.28
2019-01-15T17:53:25.584Z,101472.88
2019-01-15T17:55:56.438Z,101475.55
2019-01-15T17:58:42.139Z,101470.22
2019-01-15T18:01:27.890Z,101479.09
2019-01-15T18:03:58.749Z,101470.61
2019-01-15T18:06:45.793Z,101468.33
2019-01-15T18:09:19.426Z,101464.36
2019-01-15T18:12:06.295Z,101469.23
2019-01-15T18:14:53.025Z,101469.19
2019-01-15T18:17:29.982Z,101467.85
2019-01-15T18:20:06.886Z,101472.33
2019-01-15T18:22:54.837Z,101461.69
2019-01-15T18:25:41.729Z,101465.27
2019-01-15T18:28:21.511Z,101459.02
2019-01-15T18:31:00.824Z,101461.27
2019-01-15T18:33:31.661Z,101455.53
2019-01-15T18:36:08.477Z,101461.22
2019-01-15T18:38:39.327Z,101470.09
2019-01-15T18:41:16.129Z,101459.84
2019-01-15T18:44:03.173Z,101463.42
2019-01-15T18:46:34.018Z,101451.41
2019-01-15T18:49:22.831Z,101460.23
2019-01-15T18:51:59.263Z,101459.33
2019-01-15T18:54:48.069Z,101457.87
2019-01-15T18:57:21.665Z,101457.91
2019-01-15T19:00:01.379Z,101457.87
2019-01-15T19:02:53.110Z,101458.69
2019-01-15T19:05:44.547Z,101452.66
2019-01-15T19:08:15.493Z,101456.39
2019-01-15T19:11:01.201Z,101443.09
2019-01-15T19:13:34.601Z,101446.00
2019-01-15T19:16:11.230Z,101443.60
2019-01-15T19:18:58.038Z,101440.11
2019-01-15T19:21:28.917Z,101440.63
2019-01-15T19:23:59.719Z,101433.56
2019-01-15T19:26:46.590Z,101428.31
2019-01-15T19:29:17.353Z,101426.98
2019-01-15T19:32:06.430Z,101427.93
2019-01-15T19:34:56.055Z,101423.36
2019-01-15T19:37:43.880Z,101418.97
2019-01-15T19:40:32.784Z,101422.50
2019-01-15T19:43:21.920Z,101423.28
2019-01-15T19:45:57.405Z,101429.18
2019-01-15T19:48:37.092Z,101430.09
2019-01-15T19:51:07.980Z,101422.98
2019-01-15T19:53:38.798Z,101421.16
2019-01-15T19:56:27.030Z,101421.22
2019-01-15T19:58:57.836Z,101422.20
2019-01-15T20:01:28.659Z,101419.57
2019-01-15T20:03:59.493Z,101419.37
2019-01-15T20:06:46.448Z,101412.34
2019-01-15T20:09:17.303Z,101410.07
2019-01-15T20:11:53.721Z,101410.02
2019-01-15T20:14:24.552Z,101406.48
2019-01-15T20:17:18.043Z,101418.41
2019-01-15T20:19:50.311Z,101409.06
2019-01-15T20:22:36.001Z,101407.26
2019-01-15T20:25:19.171Z,101403.73
2019-01-15T20:27:55.866Z,101400.84
2019-01-15T20:30:32.497Z,101386.13
2019-01-15T20:33:03.305Z,101387.50
2019-01-15T20:35:52.145Z,101390.64
2019-01-15T20:38:22.963Z,101386.73
2019-01-15T20:41:10.257Z,101378.20
2019-01-15T20:43:47.026Z,101382.47
2019-01-15T20:46:20.570Z,101370.80
2019-01-15T20:48:51.390Z,101376.66
2019-01-15T20:51:25.052Z,101367.70
2019-01-15T20:53:58.564Z,101381.14
2019-01-15T20:56:44.205Z,101375.06
2019-01-15T20:59:23.603Z,101376.31
2019-01-15T21:01:57.245Z,101378.60
2019-01-15T21:04:42.952Z,101371.88
2019-01-15T21:07:13.765Z,101370.55
2019-01-15T21:09:59.564Z,101370.20
2019-01-15T21:12:45.309Z,101372.91
2019-01-15T21:15:34.518Z,101370.20
2019-01-15T21:18:05.405Z,101361.25
2019-01-15T21:20:52.682Z,101361.20
2019-01-15T21:23:29.410Z,101363.88
2019-01-15T21:26:05.862Z,101362.66
2019-01-15T21:28:40.224Z,101346.53
2019-01-15T21:31:11.056Z,101349.63
2019-01-15T21:33:41.877Z,101346.91
2019-01-15T21:36:13.646Z,101350.91
2019-01-15T21:38:45.408Z,101344.68
2019-01-15T21:41:22.472Z,101345.91
2019-01-15T21:44:09.778Z,101346.83
2019-01-15T21:46:40.667Z,101342.73
2019-01-15T21:49:17.353Z,101340.53
2019-01-15T21:52:03.149Z,101342.17
2019-01-15T21:54:42.919Z,101336.73
2019-01-15T21:57:13.691Z,101337.10
2019-01-15T21:59:53.364Z,101336.23
2019-01-15T22:02:24.171Z,101325.55
2019-01-15T22:05:01.058Z,101323.23
2019-01-15T22:07:31.886Z,101320.61
2019-01-15T22:10:18.958Z,101315.69
2019-01-15T22:12:55.782Z,101316.04
2019-01-15T22:15:29.363Z,101317.33
2019-01-15T22:18:00.178Z,101305.27
2019-01-15T22:20:40.010Z,101305.27
2019-01-15T22:23:16.924Z,101306.48
2019-01-15T22:26:03.798Z,101309.02
2019-01-15T22:28:34.610Z,101310.73
2019-01-15T22:31:10.946Z,101313.92
2019-01-15T22:34:00.820Z,101316.92
2019-01-15T22:36:37.606Z,101313.31
2019-01-15T22:39:13.684Z,101312.92
2019-01-15T22:41:44.529Z,101309.83
2019-01-15T22:44:17.920Z,101309.83
2019-01-15T22:47:06.824Z,101305.14
2019-01-15T22:49:46.265Z,101302.55
2019-01-15T22:52:19.612Z,101301.22
2019-01-15T22:54:50.424Z,101292.36
2019-01-15T22:57:26.997Z,101293.87
2019-01-15T23:00:14.265Z,101286.33
2019-01-15T23:02:50.940Z,101287.63
2019-01-15T23:05:21.844Z,101276.99
2019-01-15T23:07:52.679Z,101276.82
2019-01-15T23:10:24.445Z,101280.43
2019-01-15T23:12:57.858Z,101274.58
2019-01-15T23:15:31.451Z,101266.27
2019-01-15T23:18:14.473Z,101266.27
2019-01-15T23:20:54.343Z,101272.94
2019-01-15T23:23:43.431Z,101261.27
2019-01-15T23:26:14.268Z,101260.85
2019-01-15T23:29:09.303Z,101254.99
2019-01-15T23:31:56.441Z,101255.69
2019-01-15T23:34:27.257Z,101250.69
2019-01-15T23:37:03.858Z,101247.51
2019-01-15T23:39:37.234Z,101246.30
2019-01-15T23:42:10.866Z,101244.40
2019-01-15T23:44:50.759Z,101238.16
2019-01-15T23:47:21.593Z,101240.73
2019-01-15T23:50:08.510Z,101235.83
2019-01-15T23:52:39.349Z,101239.83
2019-01-15T23:55:10.243Z,101233.64
2019-01-15T23:57:50.195Z,101227.39
